This is the latest recevied weather packets stored in our database for station/object DH6SC. If no packets are shown the sender has not sent any weather packets the latest 10 day(s).
| Time | Temp. | Humidity | Pressure | Rain* | Wind** | Luminosity | Snow |
|---|---|---|---|---|---|---|---|
| 1777276792 | 17.78° C | 64% | 1025.2 hPa | - | - | - | - |
| 1777274993 | 17.78° C | 65% | 1025.2 hPa | - | - | - | - |
| 1777273801 | 17.78° C | 64% | 1025.4 hPa | - | - | - | - |
| 1777272600 | 17.78° C | 65% | 1025.5 hPa | - | - | - | - |
| 1777270202 | 17.78° C | 65% | 1025.3 hPa | - | - | - | - |
| 1777268998 | 17.78° C | 65% | 1025.2 hPa | - | - | - | - |
| 1777266592 | 17.78° C | 65% | 1025.3 hPa | - | - | - | - |
| 1777262401 | 18.33° C | 65% | 1024.8 hPa | - | - | - | - |
| 1777254000 | 18.89° C | 65% | 1024.8 hPa | - | - | - | - |
| 1777250401 | 18.89° C | 65% | 1025.1 hPa | - | - | - | - |
| 1777249801 | 18.89° C | 65% | 1025.2 hPa | - | - | - | - |
| 1777249192 | 18.89° C | 65% | 1025.3 hPa | - | - | - | - |
| 1777242600 | 19.44° C | 65% | 1025.2 hPa | - | - | - | - |
| 1777233596 | 20° C | 65% | 1025 hPa | - | - | - | - |
| 1777231787 | 20° C | 64% | 1024.8 hPa | - | - | - | - |
| 1777230597 | 20.56° C | 64% | 1024.6 hPa | - | - | - | - |
| 1777229403 | 20.56° C | 64% | 1024.4 hPa | - | - | - | - |
| 1777226988 | 20.56° C | 64% | 1023.8 hPa | - | - | - | - |
| 1777222200 | 20° C | 64% | 1023.4 hPa | - | - | - | - |
| 1777219801 | 20° C | 64% | 1023.6 hPa | - | - | - | - |
| 1777214997 | 20° C | 64% | 1023.8 hPa | - | - | - | - |
| 1777214402 | 20° C | 64% | 1023.8 hPa | - | - | - | - |
| 1777203001 | 18.33° C | 64% | 1025.3 hPa | - | - | - | - |
| 1777194578 | 17.78° C | 65% | 1026.1 hPa | - | - | - | - |
| 1777191602 | 17.78° C | 65% | 1026.2 hPa | - | - | - | - |
* Rain since midnight (hover to see other rain measurements)
** Current wind speed in m/s (hover to see current wind gust speed)